KIAH/IAH METAR and TAF weather

Enter ICAO airport designator
Station Type Date Time Source
KIAH METAR 2021/04/13 07:53 UTC NOAA

KIAH 130753Z 12007KT 10SM OVC011 23/20 A2985 RMK AO2 SLP108 T02280200


Station Type Date Time Source
KIAH Decoded METAR 2021/04/13 07:53 UTC NOAA

HOUSTON INTERCONTINENTAL, TX, United States (KIAH) 30-00N 095-22W 36M
Apr 13, 2021 - 03:53 AM EDT / 2021.04.13 0753 UTC
Wind: from the ESE (120 degrees) at 8 MPH (7 KT):0
Visibility: 10 mile(s):0
Sky conditions: overcast
Temperature: 73.0 F (22.8 C)
Dew Point: 68.0 F (20.0 C)
Relative Humidity: 84%
Pressure (altimeter): 29.85 in. Hg (1010 hPa)
ob: KIAH 130753Z 12007KT 10SM OVC011 23/20 A2985 RMK AO2 SLP108 T02280200
cycle: 8

Station Type Date Time Source
KIAH TAF 2021/04/13 06:24 UTC NOAA

TAF KIAH 130521Z 1306/1412 12006KT P6SM BKN018 OVC040
FM130800 11005KT P6SM VCSH OVC017
FM131500 VRB04KT P6SM SCT015 BKN030
FM132000 11006KT P6SM VCTS BKN035CB
FM140000 10007KT P6SM VCSH SCT025 BKN250
FM140600 12005KT 6SM BR VCSH OVC010

Example: see airport list